createdAt,value
2022-11-19T00:00:39.850Z,19.90
2022-11-19T00:03:31.813Z,19.97
2022-11-19T00:06:21.792Z,18.67
2022-11-19T00:09:14.293Z,20.73
2022-11-19T00:12:20.507Z,17.70
2022-11-19T00:15:09.833Z,18.13
2022-11-19T00:18:00.768Z,18.30
2022-11-19T00:20:50.966Z,18.97
2022-11-19T00:23:40.615Z,18.77
2022-11-19T00:26:29.141Z,16.20
2022-11-19T00:29:18.256Z,23.33
2022-11-19T00:32:06.954Z,19.07
2022-11-19T00:34:56.789Z,18.90
2022-11-19T00:37:45.244Z,17.60
2022-11-19T00:40:33.676Z,21.97
2022-11-19T00:43:39.815Z,16.40
2022-11-19T00:46:31.738Z,19.60
2022-11-19T00:49:21.863Z,18.50
2022-11-19T00:52:12.002Z,20.27
2022-11-19T00:55:00.474Z,20.03
2022-11-19T00:57:48.985Z,19.07
2022-11-19T01:00:39.014Z,20.80
2022-11-19T01:03:28.206Z,20.00
2022-11-19T01:06:19.600Z,22.20
2022-11-19T01:09:10.098Z,23.43
2022-11-19T01:12:00.463Z,22.17
2022-11-19T01:14:49.087Z,19.17
2022-11-19T01:17:37.539Z,19.53
2022-11-19T01:20:27.991Z,18.87
2022-11-19T01:23:16.636Z,19.90
2022-11-19T01:26:11.163Z,20.67
2022-11-19T01:29:01.008Z,22.30
2022-11-19T01:31:49.473Z,22.93
2022-11-19T01:34:37.930Z,23.83
2022-11-19T01:37:29.127Z,21.47
2022-11-19T01:40:19.996Z,21.50
2022-11-19T01:43:17.219Z,21.40
2022-11-19T01:46:10.036Z,20.13
2022-11-19T01:49:05.566Z,22.00
2022-11-19T01:52:01.588Z,20.33
2022-11-19T01:54:56.348Z,18.37
2022-11-19T01:57:52.343Z,18.27
2022-11-19T02:00:42.643Z,17.80
2022-11-19T02:03:42.520Z,19.20
2022-11-19T02:06:37.639Z,17.93
2022-11-19T02:09:34.497Z,19.80
2022-11-19T02:12:31.643Z,19.03
2022-11-19T02:15:36.463Z,18.77
2022-11-19T02:18:50.079Z,19.47
2022-11-19T02:21:57.679Z,19.40
2022-11-19T02:24:58.783Z,18.50
2022-11-19T02:28:23.427Z,16.30
2022-11-19T02:31:31.386Z,20.40
2022-11-19T02:34:35.503Z,17.40
2022-11-19T02:37:34.988Z,15.97
2022-11-19T02:40:29.894Z,24.37
2022-11-19T02:43:27.395Z,23.93
2022-11-19T02:46:26.611Z,19.47
2022-11-19T02:49:19.206Z,20.60
2022-11-19T02:52:16.545Z,20.47
2022-11-19T02:55:12.974Z,18.77
2022-11-19T02:58:34.899Z,19.07
2022-11-19T03:01:43.404Z,21.47
2022-11-19T03:04:43.293Z,19.87
2022-11-19T03:07:45.142Z,16.70
2022-11-19T03:10:48.506Z,19.10
2022-11-19T03:14:33.348Z,18.77
2022-11-19T03:17:37.016Z,16.73
2022-11-19T03:20:30.631Z,17.87
2022-11-19T03:23:37.071Z,17.33
2022-11-19T03:26:45.443Z,17.77
2022-11-19T03:29:39.006Z,15.07
2022-11-19T03:33:05.987Z,15.90
2022-11-19T03:36:34.327Z,19.53
2022-11-19T03:39:31.290Z,12.63
2022-11-19T03:42:24.023Z,14.03
2022-11-19T03:45:23.353Z,14.47
2022-11-19T03:48:40.745Z,17.60
2022-11-19T03:51:56.976Z,17.37
2022-11-19T03:54:57.218Z,14.63
2022-11-19T03:58:12.874Z,18.97
2022-11-19T04:01:19.423Z,15.73
2022-11-19T04:04:33.918Z,15.63
2022-11-19T04:07:30.649Z,18.03
2022-11-19T04:10:39.218Z,19.63
2022-11-19T04:13:45.859Z,18.97
2022-11-19T04:16:46.472Z,20.07
2022-11-19T04:20:34.966Z,19.60
2022-11-19T04:23:23.219Z,19.70
2022-11-19T04:26:34.522Z,19.30
2022-11-19T04:29:22.917Z,19.67
2022-11-19T04:32:11.432Z,19.77
2022-11-19T04:35:01.472Z,18.73
2022-11-19T04:37:50.008Z,21.40
2022-11-19T04:40:39.210Z,20.00
2022-11-19T04:43:27.752Z,22.30
2022-11-19T04:46:16.230Z,23.33
2022-11-19T04:49:04.851Z,21.60
2022-11-19T04:51:54.834Z,22.90
2022-11-19T04:54:44.232Z,22.60
2022-11-19T04:57:32.745Z,19.27
2022-11-19T05:00:21.276Z,20.40
2022-11-19T05:03:10.051Z,25.00
2022-11-19T05:05:58.510Z,21.73
2022-11-19T05:08:48.381Z,21.73
2022-11-19T05:11:36.872Z,21.50
2022-11-19T05:14:30.105Z,18.83
2022-11-19T05:17:19.134Z,19.77
2022-11-19T05:20:09.370Z,21.00
2022-11-19T05:22:57.903Z,19.67
2022-11-19T05:25:47.912Z,20.50
2022-11-19T05:28:40.224Z,22.20
2022-11-19T05:31:28.879Z,21.80
2022-11-19T05:34:17.446Z,19.97
2022-11-19T05:37:06.229Z,18.33
2022-11-19T05:39:54.730Z,19.00
2022-11-19T05:42:44.559Z,19.20
2022-11-19T05:45:33.106Z,19.93
2022-11-19T05:48:21.597Z,22.37
2022-11-19T05:51:13.825Z,22.87
2022-11-19T05:54:02.426Z,22.00
2022-11-19T05:56:50.964Z,22.93
2022-11-19T05:59:44.696Z,19.47
2022-11-19T06:02:33.185Z,23.27
2022-11-19T06:05:21.622Z,20.60
2022-11-19T06:08:10.179Z,21.73
2022-11-19T06:10:58.712Z,23.53
2022-11-19T06:13:47.155Z,24.50
2022-11-19T06:16:36.983Z,25.30
2022-11-19T06:19:26.474Z,25.53
2022-11-19T06:22:14.893Z,24.80
2022-11-19T06:25:03.665Z,25.10
2022-11-19T06:27:52.195Z,24.63
2022-11-19T06:30:40.727Z,24.23
2022-11-19T06:33:30.496Z,26.50
2022-11-19T06:36:19.307Z,28.83
2022-11-19T06:39:07.961Z,22.93
2022-11-19T06:42:16.567Z,24.33
2022-11-19T06:45:06.015Z,24.73
2022-11-19T06:47:54.449Z,25.07
2022-11-19T06:50:46.229Z,25.93
2022-11-19T06:53:34.763Z,25.87
2022-11-19T06:56:23.189Z,23.07
2022-11-19T06:59:11.747Z,26.07
2022-11-19T07:02:00.422Z,29.40
2022-11-19T07:04:49.037Z,25.53
2022-11-19T07:07:38.915Z,27.83
2022-11-19T07:10:27.472Z,30.40
2022-11-19T07:13:15.924Z,28.83
2022-11-19T07:16:04.809Z,29.93
2022-11-19T07:18:53.274Z,29.83
2022-11-19T07:21:41.682Z,30.03
2022-11-19T07:24:31.550Z,32.40
2022-11-19T07:27:20.208Z,33.27
2022-11-19T07:30:10.743Z,32.37
2022-11-19T07:32:59.582Z,33.90
2022-11-19T07:35:48.458Z,32.77
2022-11-19T07:38:37.546Z,31.20
2022-11-19T07:41:44.830Z,30.80
2022-11-19T07:44:33.423Z,35.20
2022-11-19T07:47:22.149Z,30.30
2022-11-19T07:50:11.351Z,34.27
2022-11-19T07:53:00.364Z,32.37
2022-11-19T07:55:48.863Z,34.63
2022-11-19T07:58:38.752Z,31.83
2022-11-19T08:01:28.361Z,32.80
2022-11-19T08:04:16.888Z,36.70
2022-11-19T08:07:05.947Z,33.57
2022-11-19T08:09:54.464Z,36.60
2022-11-19T08:13:03.106Z,32.20
2022-11-19T08:15:52.984Z,34.03
2022-11-19T08:18:40.793Z,31.43
2022-11-19T08:21:29.355Z,28.87
2022-11-19T08:24:20.831Z,30.10
2022-11-19T08:27:09.617Z,30.83
2022-11-19T08:29:58.170Z,31.40
2022-11-19T08:32:48.226Z,31.93
2022-11-19T08:35:37.754Z,30.57
2022-11-19T08:38:26.553Z,29.30
2022-11-19T08:41:32.427Z,26.43
2022-11-19T08:44:21.608Z,27.40
2022-11-19T08:47:10.693Z,26.90
2022-11-19T08:50:00.587Z,28.93
2022-11-19T08:52:55.511Z,28.57
2022-11-19T08:55:44.168Z,28.83
2022-11-19T08:58:32.664Z,27.30
2022-11-19T09:01:21.785Z,28.53
2022-11-19T09:04:10.366Z,33.23
2022-11-19T09:07:00.403Z,26.93
2022-11-19T09:09:48.958Z,24.50
2022-11-19T09:12:37.674Z,25.43
2022-11-19T09:15:26.177Z,27.23
2022-11-19T09:18:15.018Z,24.87
2022-11-19T09:21:03.465Z,27.00
2022-11-19T09:23:53.276Z,24.70
2022-11-19T09:26:41.741Z,27.47
2022-11-19T09:29:30.588Z,24.47
2022-11-19T09:32:25.069Z,23.90
2022-11-19T09:35:14.312Z,26.33
2022-11-19T09:38:02.837Z,23.67
2022-11-19T09:40:55.045Z,25.23
2022-11-19T09:43:52.265Z,25.43
2022-11-19T09:46:48.947Z,28.40
2022-11-19T09:49:40.669Z,24.90
2022-11-19T09:52:33.891Z,26.10
2022-11-19T09:57:04.647Z,24.97
2022-11-19T09:59:58.567Z,23.00
2022-11-19T15:17:36.912Z,19.97
2022-11-19T15:20:30.141Z,19.23
2022-11-19T15:23:24.588Z,21.23
2022-11-19T15:26:22.987Z,24.70
2022-11-19T15:29:19.785Z,23.37
2022-11-19T15:32:21.932Z,24.10
2022-11-19T15:35:55.848Z,24.97
2022-11-19T15:38:49.404Z,26.30
2022-11-19T15:41:43.089Z,25.07
2022-11-19T15:44:38.635Z,24.23
2022-11-19T15:47:38.607Z,22.10
2022-11-19T15:50:29.224Z,23.10
2022-11-19T15:53:19.521Z,19.80
2022-11-19T15:56:13.081Z,24.20
2022-11-19T15:59:03.292Z,24.47
2022-11-19T16:02:01.115Z,24.47
2022-11-19T16:04:51.135Z,23.93
2022-11-19T16:07:41.833Z,25.27
2022-11-19T16:10:32.444Z,26.73
2022-11-19T16:13:40.553Z,28.33
2022-11-19T16:16:48.138Z,21.90
2022-11-19T16:19:36.971Z,25.47
2022-11-19T16:22:25.742Z,27.00
2022-11-19T16:25:20.543Z,24.43
2022-11-19T16:28:12.676Z,28.60
2022-11-19T16:31:03.090Z,25.77
2022-11-19T16:33:55.627Z,25.27
2022-11-19T16:36:48.575Z,27.73
2022-11-19T16:39:37.155Z,25.90
2022-11-19T16:42:28.407Z,22.97
2022-11-19T16:45:22.668Z,28.07
2022-11-19T16:48:44.632Z,29.23
2022-11-19T16:51:39.666Z,29.83
2022-11-19T16:54:48.684Z,29.83
2022-11-19T16:57:38.599Z,30.87
2022-11-19T17:00:31.603Z,29.97
2022-11-19T17:03:34.514Z,29.27
2022-11-19T17:06:25.800Z,33.07
2022-11-19T17:09:33.593Z,27.67
2022-11-19T17:12:27.802Z,30.93
2022-11-19T17:15:38.954Z,36.33
2022-11-19T17:18:31.241Z,32.30
2022-11-19T17:21:26.978Z,31.73
2022-11-19T17:24:19.768Z,30.03
2022-11-19T17:27:23.744Z,31.03
2022-11-19T17:30:21.872Z,28.77
2022-11-19T17:33:17.767Z,33.10
2022-11-19T17:36:14.366Z,29.13
2022-11-19T17:39:03.233Z,29.93
2022-11-19T17:42:10.864Z,30.23
2022-11-19T17:45:02.751Z,29.47
2022-11-19T17:47:54.650Z,30.87
2022-11-19T17:50:44.488Z,31.27
2022-11-19T17:53:33.027Z,31.33
2022-11-19T17:56:23.206Z,32.13
2022-11-19T17:59:11.749Z,32.00
2022-11-19T18:02:00.264Z,30.30
2022-11-19T18:04:49.723Z,32.07
2022-11-19T18:07:39.725Z,33.47
2022-11-19T18:10:28.299Z,34.20
2022-11-19T18:13:21.208Z,30.40
2022-11-19T18:16:15.660Z,29.47
2022-11-19T18:19:10.468Z,32.77
2022-11-19T18:22:00.087Z,30.57
2022-11-19T18:24:51.449Z,30.83
2022-11-19T18:27:39.962Z,29.90
2022-11-19T18:30:28.516Z,29.90
2022-11-19T18:33:17.009Z,32.80
2022-11-19T18:36:06.154Z,30.90
2022-11-19T18:38:55.679Z,32.13
2022-11-19T18:41:45.836Z,36.27
2022-11-19T18:44:33.552Z,36.03
2022-11-19T18:47:24.264Z,35.93
2022-11-19T18:50:13.489Z,38.40
2022-11-19T18:53:02.353Z,34.77
2022-11-19T18:55:50.841Z,34.87
2022-11-19T18:58:40.744Z,30.63
2022-11-19T19:01:29.360Z,35.93
2022-11-19T19:04:18.256Z,32.27
2022-11-19T19:07:07.063Z,31.67
2022-11-19T19:09:55.889Z,37.10
2022-11-19T19:12:44.450Z,34.33
2022-11-19T19:15:34.291Z,36.50
2022-11-19T19:18:22.859Z,33.97
2022-11-19T19:21:14.530Z,35.60
2022-11-19T19:24:05.371Z,35.70
2022-11-19T19:26:53.820Z,33.90
2022-11-19T19:29:43.691Z,31.87
2022-11-19T19:32:33.579Z,33.87
2022-11-19T19:35:22.222Z,34.70
2022-11-19T19:38:10.780Z,34.73
2022-11-19T19:41:05.374Z,29.90
2022-11-19T19:43:57.620Z,31.37
2022-11-19T19:46:48.651Z,36.73
2022-11-19T19:49:39.239Z,34.57
2022-11-19T19:52:28.115Z,36.00
2022-11-19T19:55:17.012Z,35.97
2022-11-19T19:58:07.396Z,37.47
2022-11-19T20:00:55.869Z,37.33
2022-11-19T20:03:47.348Z,36.87
2022-11-19T20:06:44.882Z,37.57
2022-11-19T20:09:33.299Z,39.03
2022-11-19T20:12:21.889Z,41.23
2022-11-19T20:15:11.534Z,44.10
2022-11-19T20:18:00.140Z,46.07
2022-11-19T20:20:48.985Z,45.90
2022-11-19T20:23:40.448Z,48.53
2022-11-19T20:26:31.320Z,51.77
2022-11-19T20:29:22.012Z,52.17
2022-11-19T20:32:10.787Z,52.63
2022-11-19T20:34:59.315Z,54.90
2022-11-19T20:37:48.800Z,57.10
2022-11-19T20:40:38.715Z,54.77
2022-11-19T20:43:50.163Z,63.53
2022-11-19T20:46:40.969Z,62.00
2022-11-19T20:49:31.498Z,64.53
2022-11-19T20:52:21.678Z,64.43
2022-11-19T20:55:10.428Z,65.30
2022-11-19T20:58:01.600Z,74.13
2022-11-19T21:00:50.148Z,71.67
2022-11-19T21:03:39.359Z,67.93
2022-11-19T21:06:28.528Z,71.30
2022-11-19T21:09:17.351Z,68.70
2022-11-19T21:12:06.432Z,67.37
2022-11-19T21:14:56.540Z,65.87
2022-11-19T21:17:45.226Z,67.77
2022-11-19T21:20:33.918Z,66.77
2022-11-19T21:23:22.543Z,67.53
2022-11-19T21:26:13.045Z,71.60
2022-11-19T21:29:01.817Z,70.70
2022-11-19T21:31:52.162Z,71.27
2022-11-19T21:34:41.923Z,65.50
2022-11-19T21:37:30.528Z,69.20
2022-11-19T21:40:19.250Z,70.97
2022-11-19T21:43:08.210Z,68.13
2022-11-19T21:45:57.939Z,65.30
2022-11-19T21:48:47.785Z,65.40
2022-11-19T21:51:36.265Z,68.70
2022-11-19T21:54:24.811Z,63.47
2022-11-19T21:57:13.262Z,61.03
2022-11-19T22:00:01.755Z,63.43
2022-11-19T22:02:50.273Z,53.70
2022-11-19T22:05:40.147Z,56.83
2022-11-19T22:08:31.231Z,60.27
2022-11-19T22:11:32.408Z,64.27
2022-11-19T22:14:20.997Z,60.97
2022-11-19T22:17:09.781Z,64.37
2022-11-19T22:19:58.590Z,57.90
2022-11-19T22:22:48.405Z,57.07
2022-11-19T22:25:37.096Z,59.60
2022-11-19T22:28:25.820Z,60.90
2022-11-19T22:31:15.580Z,60.00
2022-11-19T22:34:04.218Z,57.40
2022-11-19T22:36:52.955Z,59.07
